Terminal Aerodrome Forecast
Issued by NWS

Home | Current Version | Previous Version | Text Only | Print | Product List | Glossary On
Versions: 1 2 3 4 5 6 7 8 9 10 11 12 13 14 15 16 17 18 19 20 21 22 23 24 25 26 27 28 29
000
FTAK31 PANC 231729
TAFACV
TAF
PACV 231729Z 2318/2418 VRB03KT P6SM SCT040 OVC060
     FM232200 10005KT P6SM VCSH SCT025 OVC040
     FM240200 10010KT 2SM -SN BR SCT008 OVC015
     FM241200 09008KT 5SM -RA BR SCT015 OVC025=

USA.gov is the U.S. government's official web portal to all federal, state and local government web resources and services.